Time;durP1;ratioP1;P1;durP2;ratioP2;P2;SDS_P1;SDS_P2;PMS_P1;PMS_P2;Temp;Humidity;BMP_temperature;BMP_pressure;BME280_temperature;BME280_humidity;BME280_pressure;Samples;Min_cycle;Max_cycle;Signal;HPM_P1;HPM_P2
2022/11/09 00:00:54;;;;;;;8.85;2.20;;;18.60;74.00;;;;;;6044878;23;20166;-84
2022/11/09 00:03:20;;;;;;;7.10;2.70;;;18.60;73.80;;;;;;6045651;23;20186;-83
2022/11/09 00:05:57;;;;;;;5.53;2.58;;;18.60;74.00;;;;;;6045345;23;20189;-83
2022/11/09 00:08:29;;;;;;;5.72;2.28;;;18.60;74.00;;;;;;5951230;23;20189;-83
2022/11/09 00:11:04;;;;;;;6.75;2.58;;;18.60;74.00;;;;;;5974435;23;20154;-83
2022/11/09 00:13:30;;;;;;;6.05;2.33;;;18.60;73.80;;;;;;5951576;23;20157;-83
2022/11/09 00:15:58;;;;;;;6.82;2.38;;;18.60;73.80;;;;;;6045588;23;20178;-83
2022/11/09 00:18:28;;;;;;;7.35;2.33;;;18.60;73.80;;;;;;6045651;23;20209;-84
2022/11/09 00:20:54;;;;;;;4.35;2.17;;;18.70;73.90;;;;;;5974354;23;20209;-83
2022/11/09 00:23:20;;;;;;;9.98;2.65;;;18.60;73.80;;;;;;6046084;23;20150;-83
2022/11/09 00:25:50;;;;;;;7.22;2.47;;;18.60;74.00;;;;;;6045937;23;20606;-83
2022/11/09 00:28:16;;;;;;;5.90;2.63;;;18.60;74.20;;;;;;5974471;23;20185;-83
2022/11/09 00:30:42;;;;;;;5.50;2.20;;;18.60;73.90;;;;;;6022513;23;20146;-83
2022/11/09 00:33:09;;;;;;;5.60;2.42;;;18.60;74.00;;;;;;6047670;23;20158;-83
2022/11/09 00:35:40;;;;;;;7.20;2.58;;;18.60;74.20;;;;;;6045428;23;20153;-83
2022/11/09 00:38:06;;;;;;;6.05;2.42;;;18.60;74.00;;;;;;5973697;23;20157;-83
2022/11/09 00:40:32;;;;;;;6.00;2.33;;;18.60;73.90;;;;;;6045318;23;20161;-83
2022/11/09 00:42:58;;;;;;;6.63;2.50;;;18.60;74.00;;;;;;6045096;23;20154;-83
2022/11/09 00:45:24;;;;;;;5.47;2.40;;;18.60;73.90;;;;;;6044873;23;20198;-84
2022/11/09 00:47:54;;;;;;;5.75;2.20;;;18.70;73.90;;;;;;5998806;23;20257;-83
2022/11/09 00:50:23;;;;;;;5.75;2.40;;;18.60;73.80;;;;;;5974700;23;20158;-83
2022/11/09 00:52:55;;;;;;;8.20;2.25;;;18.60;73.90;;;;;;5974334;23;20475;-83
2022/11/09 00:55:25;;;;;;;5.53;2.40;;;18.60;74.00;;;;;;5974489;23;20662;-83
2022/11/09 00:57:51;;;;;;;6.55;2.95;;;18.60;74.10;;;;;;5974522;23;20227;-83
2022/11/09 01:00:22;;;;;;;4.10;2.38;;;18.60;73.90;;;;;;6044894;23;20146;-83
2022/11/09 01:02:56;;;;;;;6.78;2.45;;;18.60;74.20;;;;;;5951061;23;20221;-83
2022/11/09 01:05:26;;;;;;;7.10;2.33;;;18.60;74.00;;;;;;5996820;23;20575;-84
2022/11/09 01:07:56;;;;;;;5.72;2.90;;;18.60;74.00;;;;;;5974019;23;20233;-83
2022/11/09 01:10:22;;;;;;;6.47;2.33;;;18.60;74.20;;;;;;5997163;23;20487;-83
2022/11/09 01:12:48;;;;;;;5.20;2.03;;;18.60;74.20;;;;;;6044893;23;20134;-83
2022/11/09 01:15:19;;;;;;;6.03;2.28;;;18.60;74.10;;;;;;6044317;23;20599;-83
2022/11/09 01:17:46;;;;;;;7.78;2.53;;;18.60;74.30;;;;;;5996846;23;20237;-83
2022/11/09 01:20:18;;;;;;;4.10;2.20;;;18.50;74.50;;;;;;6044955;23;20511;-83
2022/11/09 01:22:44;;;;;;;5.53;2.20;;;18.50;74.60;;;;;;5974421;23;20162;-83
2022/11/09 01:25:10;;;;;;;8.23;2.20;;;18.50;74.60;;;;;;6044200;23;20185;-84
2022/11/09 01:27:42;;;;;;;4.90;2.40;;;18.50;74.60;;;;;;6045200;23;20163;-84
2022/11/09 01:30:12;;;;;;;5.75;2.05;;;18.50;74.70;;;;;;5973461;23;20519;-83
2022/11/09 01:32:38;;;;;;;4.57;2.20;;;18.50;74.70;;;;;;5997080;23;20154;-84
2022/11/09 01:35:04;;;;;;;6.53;1.95;;;18.40;74.70;;;;;;6044888;23;20508;-84
2022/11/09 01:37:35;;;;;;;7.82;2.55;;;18.40;74.70;;;;;;6044941;23;20158;-83
2022/11/09 01:40:01;;;;;;;5.65;2.58;;;18.50;75.00;;;;;;5974182;23;20237;-83
2022/11/09 01:42:28;;;;;;;5.68;2.25;;;18.50;74.90;;;;;;6044729;23;20157;-83
2022/11/09 01:45:21;;;;;;;6.15;2.30;;;18.50;74.90;;;;;;6044243;23;20201;-83
2022/11/09 01:47:51;;;;;;;5.95;2.33;;;18.50;75.90;;;;;;6020928;23;20165;-83
2022/11/09 01:50:28;;;;;;;7.78;2.58;;;18.40;75.10;;;;;;6045063;23;20134;-84
2022/11/09 01:52:54;;;;;;;5.68;2.20;;;18.50;75.00;;;;;;5976180;23;20244;-84
2022/11/09 01:55:24;;;;;;;5.05;2.22;;;18.40;75.10;;;;;;6044347;23;20178;-84
2022/11/09 01:57:57;;;;;;;4.88;2.20;;;18.40;75.10;;;;;;5973719;23;20154;-84
2022/11/09 02:00:28;;;;;;;3.05;1.95;;;18.50;75.10;;;;;;6044149;23;20189;-84
2022/11/09 02:02:57;;;;;;;6.18;2.40;;;18.50;75.20;;;;;;5973420;23;20193;-84
2022/11/09 02:05:28;;;;;;;5.70;2.55;;;18.40;75.20;;;;;;6020808;23;20157;-83
2022/11/09 02:08:00;;;;;;;3.45;2.08;;;18.40;75.20;;;;;;5973710;23;20158;-84
2022/11/09 02:10:52;;;;;;;5.35;2.22;;;18.40;75.20;;;;;;5974869;23;20163;-84
2022/11/09 02:13:19;;;;;;;4.25;2.20;;;18.40;75.30;;;;;;5986296;23;20158;-84
2022/11/09 02:15:50;;;;;;;7.40;2.30;;;18.40;75.30;;;;;;6021820;23;20154;-83
2022/11/09 02:18:21;;;;;;;6.18;2.45;;;18.40;75.20;;;;;;5973974;23;20158;-84
2022/11/09 02:20:54;;;;;;;7.13;1.90;;;18.40;75.30;;;;;;5951333;23;20630;-83
2022/11/09 02:23:24;;;;;;;5.40;2.33;;;18.30;75.20;;;;;;5999821;23;20181;-83
2022/11/09 02:25:58;;;;;;;3.58;2.08;;;18.40;75.30;;;;;;5978122;23;20255;-83
2022/11/09 02:28:29;;;;;;;7.57;2.50;;;18.40;75.30;;;;;;5979786;23;20162;-83
2022/11/09 02:30:55;;;;;;;4.68;2.20;;;18.40;75.30;;;;;;6001205;23;20158;-83
2022/11/09 02:33:26;;;;;;;5.50;2.00;;;18.40;75.30;;;;;;6025853;23;20228;-84
2022/11/09 02:35:58;;;;;;;5.95;2.30;;;18.40;75.30;;;;;;5996858;23;20162;-83
2022/11/09 02:38:27;;;;;;;4.15;2.20;;;18.40;75.30;;;;;;5974263;23;20161;-83
2022/11/09 02:40:58;;;;;;;5.65;2.30;;;18.40;75.10;;;;;;5974801;23;20388;-83
2022/11/09 02:43:28;;;;;;;5.40;2.00;;;18.40;75.20;;;;;;5999542;23;20168;-84
2022/11/09 02:45:57;;;;;;;8.07;2.38;;;18.40;75.10;;;;;;5997336;23;20209;-83
2022/11/09 02:48:31;;;;;;;5.60;2.28;;;18.50;75.40;;;;;;5998506;23;20158;-84
2022/11/09 02:50:57;;;;;;;9.13;2.20;;;18.40;75.30;;;;;;5952747;23;20153;-83
2022/11/09 02:53:28;;;;;;;4.72;2.60;;;18.40;75.30;;;;;;6047695;23;20190;-83
2022/11/09 02:55:54;;;;;;;3.78;1.90;;;18.40;74.80;;;;;;5975797;23;20161;-84
2022/11/09 02:58:20;;;;;;;4.35;2.20;;;18.40;75.00;;;;;;6047183;23;20154;-84
2022/11/09 03:00:52;;;;;;;6.80;2.22;;;18.40;75.00;;;;;;6046756;23;20150;-84
2022/11/09 03:03:17;;;;;;;5.18;2.33;;;18.40;75.00;;;;;;6045591;23;20158;-84
2022/11/09 03:05:44;;;;;;;5.38;2.53;;;18.40;75.00;;;;;;6046951;23;20185;-84
2022/11/09 03:08:10;;;;;;;3.50;1.85;;;18.40;74.80;;;;;;6046298;23;20598;-83
2022/11/09 03:10:36;;;;;;;3.47;1.92;;;18.40;74.90;;;;;;6046595;23;20213;-83
2022/11/09 03:13:07;;;;;;;7.80;2.30;;;18.40;74.80;;;;;;6046523;23;20138;-83
2022/11/09 03:15:34;;;;;;;5.47;2.20;;;18.40;75.10;;;;;;5975026;23;20162;-83
2022/11/09 03:18:04;;;;;;;4.35;1.92;;;18.40;74.90;;;;;;6045890;23;20166;-83
2022/11/09 03:20:34;;;;;;;5.63;2.30;;;18.40;75.10;;;;;;5999508;23;20187;-83
2022/11/09 03:23:04;;;;;;;6.60;2.17;;;18.30;74.80;;;;;;5976024;23;20161;-84
2022/11/09 03:25:35;;;;;;;3.17;2.10;;;18.40;75.00;;;;;;5999142;23;20183;-84
2022/11/09 03:28:07;;;;;;;7.55;2.47;;;18.40;74.80;;;;;;5998401;23;20608;-84
2022/11/09 03:30:33;;;;;;;4.35;2.45;;;18.40;74.80;;;;;;5975119;23;20158;-84
2022/11/09 03:33:11;;;;;;;8.02;2.33;;;18.40;75.00;;;;;;6022589;23;20147;-84
2022/11/09 03:35:38;;;;;;;8.23;2.33;;;18.40;75.10;;;;;;5955698;23;20154;-84
2022/11/09 03:38:08;;;;;;;6.13;2.30;;;18.40;75.20;;;;;;6046113;23;20150;-84
2022/11/09 03:40:33;;;;;;;4.82;1.90;;;18.40;75.10;;;;;;5998093;23;20244;-84
2022/11/09 03:43:04;;;;;;;4.55;1.98;;;18.40;75.00;;;;;;6045869;23;20165;-84
2022/11/09 03:45:30;;;;;;;5.03;2.20;;;18.40;74.80;;;;;;6044866;23;20193;-84
2022/11/09 03:47:58;;;;;;;3.00;1.98;;;18.40;74.80;;;;;;5976028;23;20161;-84
2022/11/09 03:50:30;;;;;;;3.83;2.08;;;18.40;75.00;;;;;;5998986;23;20583;-83
2022/11/09 03:52:57;;;;;;;3.40;2.25;;;18.40;74.90;;;;;;5975804;23;20161;-84
2022/11/09 03:55:30;;;;;;;5.07;2.20;;;18.40;75.00;;;;;;5999307;23;20156;-84
2022/11/09 03:57:56;;;;;;;4.57;2.28;;;18.40;74.90;;;;;;5951957;23;20158;-84
2022/11/09 04:00:22;;;;;;;4.72;2.40;;;18.40;75.00;;;;;;5998468;23;20229;-85
2022/11/09 04:02:48;;;;;;;6.22;2.45;;;18.50;74.80;;;;;;5999429;23;20647;-84
2022/11/09 04:05:21;;;;;;;5.32;2.25;;;18.40;74.80;;;;;;5999354;23;20173;-84
2022/11/09 04:07:52;;;;;;;5.60;2.10;;;18.40;75.00;;;;;;5928970;23;20205;-84
2022/11/09 04:10:18;;;;;;;4.22;2.40;;;18.40;74.80;;;;;;5930668;23;20162;-84
2022/11/09 04:12:51;;;;;;;5.97;1.98;;;18.40;74.90;;;;;;5999310;23;20146;-84
2022/11/09 04:15:22;;;;;;;4.00;2.08;;;18.40;74.80;;;;;;5952956;23;20236;-84
2022/11/09 04:17:56;;;;;;;3.40;2.10;;;18.40;75.00;;;;;;5975010;23;20202;-84
2022/11/09 04:20:29;;;;;;;4.75;2.30;;;18.40;75.00;;;;;;5999353;23;20158;-84
2022/11/09 04:22:57;;;;;;;4.22;2.08;;;18.40;74.90;;;;;;5952670;23;20154;-84
2022/11/09 04:25:24;;;;;;;3.28;2.08;;;18.30;74.80;;;;;;5999276;23;20150;-84
2022/11/09 04:27:55;;;;;;;3.70;1.95;;;18.40;74.70;;;;;;5999036;23;20605;-84
2022/11/09 04:30:27;;;;;;;6.20;2.20;;;18.40;74.70;;;;;;5999269;23;20142;-85
2022/11/09 04:32:57;;;;;;;3.90;2.22;;;18.40;74.90;;;;;;5929895;23;20237;-83
2022/11/09 04:35:27;;;;;;;4.43;2.30;;;18.40;74.70;;;;;;5929220;23;20221;-84
2022/11/09 04:38:02;;;;;;;4.82;2.15;;;18.40;74.50;;;;;;5929311;23;20571;-84
2022/11/09 04:40:33;;;;;;;6.15;2.38;;;18.40;74.90;;;;;;5930169;23;20153;-84
2022/11/09 04:42:59;;;;;;;6.05;2.20;;;18.40;74.90;;;;;;5929887;23;20181;-84
2022/11/09 04:45:25;;;;;;;4.72;2.22;;;18.40;74.50;;;;;;6006772;23;20205;-84
2022/11/09 04:47:55;;;;;;;3.92;2.10;;;18.40;74.60;;;;;;5999815;23;20474;-84
2022/11/09 04:50:25;;;;;;;5.18;2.20;;;18.40;74.70;;;;;;6046246;23;20166;-84
2022/11/09 04:52:51;;;;;;;5.60;1.90;;;18.40;74.80;;;;;;5975119;23;20185;-85
2022/11/09 04:55:21;;;;;;;4.35;2.38;;;18.40;74.80;;;;;;6046830;23;20154;-84
2022/11/09 04:57:47;;;;;;;4.22;2.20;;;18.40;75.00;;;;;;5975501;23;20158;-83
2022/11/09 05:00:13;;;;;;;4.32;2.30;;;18.30;74.80;;;;;;6046259;23;20164;-84
2022/11/09 05:02:52;;;;;;;4.80;2.17;;;18.40;74.70;;;;;;6044769;23;20494;-84
2022/11/09 05:05:18;;;;;;;6.70;2.30;;;18.40;74.80;;;;;;5974244;23;20218;-84
2022/11/09 05:07:50;;;;;;;4.90;2.10;;;18.40;75.50;;;;;;6046202;23;20235;-83
2022/11/09 05:10:16;;;;;;;3.65;1.90;;;18.40;75.00;;;;;;5951198;23;20150;-84
2022/11/09 05:12:43;;;;;;;3.42;1.75;;;18.40;75.00;;;;;;6045994;23;20163;-84
2022/11/09 05:15:13;;;;;;;4.40;2.20;;;18.40;75.30;;;;;;6046427;23;20245;-84
2022/11/09 05:17:43;;;;;;;5.53;2.40;;;18.40;75.40;;;;;;5974878;23;20161;-84
2022/11/09 05:20:13;;;;;;;3.30;2.05;;;18.30;75.00;;;;;;5975536;23;20158;-84
2022/11/09 05:25:27;;;;;;;5.45;2.22;;;18.30;74.90;;;;;;6025495;23;20160;-83
2022/11/09 05:27:56;;;;;;;4.93;2.28;;;18.40;75.10;;;;;;6047586;23;20198;-83
2022/11/09 05:30:28;;;;;;;3.60;2.10;;;18.40;75.20;;;;;;5975017;23;20150;-84
2022/11/09 05:32:54;;;;;;;4.45;2.15;;;18.30;75.00;;;;;;5974500;23;20198;-84
2022/11/09 05:35:20;;;;;;;5.38;2.40;;;18.30;75.20;;;;;;6045801;23;20142;-83
2022/11/09 05:37:47;;;;;;;4.60;2.15;;;18.30;75.20;;;;;;6022571;23;20579;-83
2022/11/09 05:40:14;;;;;;;2.65;1.80;;;18.30;75.20;;;;;;6047074;23;20135;-84
2022/11/09 05:42:40;;;;;;;4.28;2.28;;;18.30;75.30;;;;;;6046382;23;20127;-83
2022/11/09 05:45:07;;;;;;;5.50;2.40;;;18.30;75.60;;;;;;6045413;23;20253;-83
2022/11/09 05:47:40;;;;;;;5.55;2.05;;;18.30;75.30;;;;;;6021831;23;20255;-83
2022/11/09 05:50:07;;;;;;;2.80;1.98;;;18.30;75.50;;;;;;5973820;23;20157;-83
2022/11/09 05:52:39;;;;;;;4.78;2.15;;;18.30;75.60;;;;;;6020779;23;20157;-83
2022/11/09 05:55:10;;;;;;;2.75;2.03;;;18.20;75.20;;;;;;5949251;23;20158;-84
2022/11/09 05:57:45;;;;;;;3.38;2.13;;;18.30;75.70;;;;;;5949881;23;20214;-84
2022/11/09 06:00:15;;;;;;;4.22;2.20;;;18.30;75.90;;;;;;5996094;23;20154;-83
2022/11/09 06:03:00;;;;;;;4.07;2.10;;;18.30;75.60;;;;;;5973223;23;20520;-83
2022/11/09 06:05:26;;;;;;;5.28;2.40;;;18.20;75.00;;;;;;5975445;23;20154;-84
2022/11/09 06:07:52;;;;;;;3.70;2.00;;;18.20;75.30;;;;;;6044341;23;20146;-84
2022/11/09 06:10:22;;;;;;;4.50;2.20;;;18.30;75.40;;;;;;6044229;23;20555;-84
2022/11/09 06:12:49;;;;;;;4.32;2.30;;;18.30;74.80;;;;;;5949147;23;20177;-84
2022/11/09 06:15:15;;;;;;;4.22;1.90;;;18.30;74.80;;;;;;6042055;23;20478;-83
2022/11/09 06:17:54;;;;;;;3.28;1.80;;;18.30;74.40;;;;;;6046500;23;20149;-87
2022/11/09 06:20:26;;;;;;;3.42;2.17;;;18.40;74.10;;;;;;5979415;23;20157;-82
2022/11/09 06:22:58;;;;;;;4.20;2.28;;;18.40;74.20;;;;;;6049274;23;20157;-83
2022/11/09 06:25:35;;;;;;;3.40;2.00;;;18.40;74.00;;;;;;5955226;23;20202;-83
2022/11/09 06:28:04;;;;;;;3.58;2.00;;;18.40;73.80;;;;;;5977389;23;20154;-83
2022/11/09 06:30:35;;;;;;;3.00;2.28;;;18.50;73.80;;;;;;6055447;23;20153;-84
2022/11/09 06:33:07;;;;;;;3.75;1.98;;;18.40;73.80;;;;;;6057125;23;20201;-83
2022/11/09 06:35:36;;;;;;;4.05;2.33;;;18.50;73.70;;;;;;5953952;24;20155;-84
2022/11/09 06:38:02;;;;;;;2.85;2.08;;;18.40;74.00;;;;;;5948629;24;20211;-84
2022/11/09 06:40:35;;;;;;;3.78;1.92;;;18.50;74.10;;;;;;5948167;24;20152;-83
2022/11/09 06:43:05;;;;;;;1.98;1.60;;;18.50;73.90;;;;;;5904331;24;20187;-84
2022/11/09 06:45:31;;;;;;;2.53;1.98;;;18.50;73.30;;;;;;5900903;24;20200;-83
2022/11/09 06:48:02;;;;;;;3.25;2.00;;;18.50;74.00;;;;;;5948100;24;20168;-83
2022/11/09 06:50:33;;;;;;;2.85;2.30;;;18.50;73.60;;;;;;5901288;24;20245;-85
2022/11/09 06:53:08;;;;;;;3.47;2.10;;;18.50;73.70;;;;;;5878996;24;20175;-84
2022/11/09 06:55:40;;;;;;;2.97;1.92;;;18.50;73.20;;;;;;5923360;24;20156;-84
2022/11/09 06:58:14;;;;;;;3.60;2.22;;;18.50;73.60;;;;;;5901809;24;20161;-83
2022/11/09 07:00:45;;;;;;;3.63;2.05;;;18.50;73.70;;;;;;5924242;24;20159;-84
2022/11/09 07:03:33;;;;;;;3.05;1.98;;;18.60;74.00;;;;;;5903858;24;20254;-84
2022/11/09 07:06:11;;;;;;;2.25;1.80;;;18.50;72.50;;;;;;5920915;24;20183;-84
2022/11/09 07:08:49;;;;;;;6.45;2.15;;;18.60;73.10;;;;;;5926643;24;20156;-84
2022/11/09 07:11:22;;;;;;;3.63;2.15;;;18.60;72.50;;;;;;5951053;24;20167;-84
2022/11/09 07:14:15;;;;;;;6.20;2.22;;;18.60;72.50;;;;;;5862655;24;20156;-83
2022/11/09 07:16:43;;;;;;;6.25;2.03;;;18.50;73.20;;;;;;5919174;24;20247;-83
2022/11/09 07:30:23;;;;;;;;;;;;;;;;;;;;;
2022/11/09 08:56:11;;;;;;;5.97;2.25;;;18.80;72.20;;;;;;5969865;24;20632;-85
2022/11/09 09:06:24;;;;;;;4.72;2.33;;;18.80;71.90;;;;;;5914651;24;20150;-86
2022/11/09 09:13:21;;;;;;;4.03;2.10;;;18.80;72.40;;;;;;5859628;24;20188;-85
2022/11/09 09:16:57;;;;;;;;;;;;;;;;;;;;;
2022/11/09 09:23:43;;;;;;;4.47;1.98;;;18.80;72.10;;;;;;5588048;25;20229;-84
2022/11/09 09:26:52;;;;;;;5.63;2.20;;;18.80;72.00;;;;;;5602606;25;20197;-84
2022/11/09 09:33:20;;;;;;;4.47;2.00;;;18.90;72.10;;;;;;5611194;25;20220;-85
2022/11/09 09:40:12;;;;;;;;;;;;;;;;;;;;;
2022/11/09 10:01:01;;;;;;;3.15;2.10;;;18.90;71.20;;;;;;5781279;24;20206;-85
2022/11/09 10:03:41;;;;;;;3.63;1.98;;;18.90;71.60;;;;;;5732697;25;20296;-85
2022/11/09 10:06:37;;;;;;;4.50;2.20;;;19.00;72.10;;;;;;5759097;24;20192;-84
2022/11/09 10:16:40;;;;;;;;;;;;;;;;;;;;;
2022/11/09 10:23:09;;;;;;;4.43;1.77;;;18.90;72.30;;;;;;5922777;24;20172;-83
2022/11/09 11:01:37;;;;;;;5.93;2.40;;;19.00;72.50;;;;;;6002796;24;20135;-85
2022/11/09 11:07:27;;;;;;;4.00;2.40;;;18.90;72.80;;;;;;5975329;24;20237;-86
2022/11/09 11:14:04;;;;;;;4.00;2.20;;;18.90;72.70;;;;;;5975451;24;20203;-85
2022/11/09 11:20:38;;;;;;;2.72;2.20;;;18.90;73.10;;;;;;5976689;24;20273;-85
2022/11/09 11:26:39;;;;;;;5.50;2.35;;;19.00;72.60;;;;;;5979007;24;20190;-84
2022/11/09 11:29:56;;;;;;;4.80;2.30;;;19.10;72.20;;;;;;5977598;24;20156;-84
2022/11/09 11:32:28;;;;;;;6.43;2.30;;;19.00;72.50;;;;;;6010119;23;20248;-84
2022/11/09 11:37:50;;;;;;;7.45;2.33;;;19.00;72.60;;;;;;6064309;23;20188;-85
2022/11/09 11:40:58;;;;;;;4.50;2.50;;;19.00;72.40;;;;;;6036416;23;20147;-83
2022/11/09 11:44:00;;;;;;;3.78;2.30;;;19.00;72.30;;;;;;6013538;23;20138;-82
2022/11/09 11:46:43;;;;;;;3.58;2.28;;;19.00;72.60;;;;;;5959578;24;20256;-84
2022/11/09 11:52:13;;;;;;;4.03;2.10;;;19.10;72.00;;;;;;6077397;23;20216;-82
2022/11/09 12:19:31;;;;;;;;;;;;;;;;;;;;;
2022/11/09 12:22:28;;;;;;;5.13;2.40;;;19.00;71.20;;;;;;6055475;23;20235;-83
2022/11/09 12:30:28;;;;;;;3.83;2.15;;;19.10;71.80;;;;;;6065380;23;20176;-83
2022/11/09 12:41:26;;;;;;;2.50;2.17;;;19.00;71.60;;;;;;6085898;23;20208;-86
2022/11/09 12:44:22;;;;;;;3.70;2.30;;;19.00;71.40;;;;;;5954532;24;20150;-85
2022/11/09 12:47:31;;;;;;;4.05;2.10;;;19.00;71.20;;;;;;5936845;24;20180;-85
2022/11/09 12:50:22;;;;;;;3.85;2.40;;;19.00;70.90;;;;;;6002914;24;20135;-83
2022/11/09 12:53:02;;;;;;;4.43;2.20;;;19.00;70.50;;;;;;5852930;24;20193;-84
2022/11/09 12:55:48;;;;;;;4.93;2.50;;;19.00;70.30;;;;;;5891495;24;20154;-84
2022/11/09 12:58:24;;;;;;;3.67;2.10;;;19.10;70.50;;;;;;5869623;24;20536;-83
2022/11/09 13:04:24;;;;;;;3.53;2.10;;;19.10;70.70;;;;;;6041639;23;20541;-83
2022/11/09 13:17:18;;;;;;;2.42;2.20;;;19.00;71.00;;;;;;6057030;23;20286;-85
2022/11/09 13:20:33;;;;;;;3.20;2.33;;;19.00;70.70;;;;;;5942805;24;20164;-85
2022/11/09 13:39:26;;;;;;;4.90;2.22;;;19.00;70.50;;;;;;6073635;23;20255;-83
2022/11/09 13:41:59;;;;;;;2.70;2.22;;;19.00;70.70;;;;;;6083216;23;20133;-83
2022/11/09 13:44:30;;;;;;;4.43;2.65;;;19.10;70.40;;;;;;5966476;23;20164;-85
2022/11/09 13:47:25;;;;;;;4.85;2.30;;;19.00;71.20;;;;;;6059007;23;20760;-83
2022/11/09 13:52:46;;;;;;;5.43;2.42;;;19.00;70.30;;;;;;6054739;23;20654;-82
2022/11/09 13:55:55;;;;;;;4.25;2.25;;;19.10;71.10;;;;;;6027001;23;20150;-84
2022/11/09 13:58:43;;;;;;;6.22;2.45;;;19.10;70.30;;;;;;5971286;24;20139;-83
2022/11/09 14:01:29;;;;;;;4.00;2.15;;;19.00;70.80;;;;;;5928620;24;20159;-83
2022/11/09 14:04:00;;;;;;;9.27;2.50;;;19.10;71.00;;;;;;5968068;24;20159;-82
2022/11/09 14:06:37;;;;;;;3.47;2.30;;;19.10;70.50;;;;;;5926591;24;20197;-84
2022/11/09 14:09:13;;;;;;;3.58;2.40;;;19.10;70.20;;;;;;5978529;24;20241;-83
2022/11/09 14:12:24;;;;;;;;;;;;;;;;;;;;;
2022/11/09 14:15:32;;;;;;;8.20;2.55;;;19.10;70.80;;;;;;5969158;24;20160;-82
2022/11/09 14:18:23;;;;;;;4.47;2.20;;;19.10;71.10;;;;;;5867098;24;20157;-81
2022/11/09 14:24:19;;;;;;;11.68;2.25;;;19.10;70.20;;;;;;5858044;24;20200;-82
2022/11/09 14:27:13;;;;;;;5.45;2.17;;;19.10;69.40;;;;;;5884830;24;20219;-82
2022/11/09 14:30:01;;;;;;;5.78;2.40;;;19.10;69.90;;;;;;5885543;24;20154;-83
2022/11/09 14:32:27;;;;;;;2.75;2.30;;;19.10;70.90;;;;;;5884211;24;20158;-83
2022/11/09 14:35:09;;;;;;;5.75;2.80;;;19.10;70.00;;;;;;5880099;24;20158;-82
2022/11/09 14:37:42;;;;;;;3.30;2.42;;;19.10;70.10;;;;;;5874779;24;20162;-82
2022/11/09 14:40:31;;;;;;;5.00;2.50;;;19.00;70.90;;;;;;5835462;24;20556;-83
2022/11/09 14:43:03;;;;;;;3.83;2.33;;;19.10;70.90;;;;;;5857020;24;20195;-82
2022/11/09 14:45:31;;;;;;;3.88;2.25;;;19.10;70.40;;;;;;5894364;24;20566;-82
2022/11/09 14:47:58;;;;;;;5.32;2.63;;;19.00;70.90;;;;;;5908290;24;20234;-82
2022/11/09 14:50:30;;;;;;;5.88;2.58;;;19.10;69.80;;;;;;5907863;24;20277;-84
2022/11/09 14:52:56;;;;;;;6.13;2.53;;;19.10;70.00;;;;;;5908724;24;20158;-83
2022/11/09 14:55:43;;;;;;;6.32;2.72;;;19.10;70.50;;;;;;5975958;23;20158;-83
2022/11/09 14:58:17;;;;;;;3.45;2.25;;;19.10;70.50;;;;;;5971341;24;20211;-83
2022/11/09 15:00:45;;;;;;;3.15;2.20;;;19.10;70.70;;;;;;5919802;24;20164;-82
2022/11/09 15:03:28;;;;;;;5.20;2.38;;;19.10;70.50;;;;;;5897048;24;20163;-83
2022/11/09 15:06:11;;;;;;;3.00;2.33;;;19.10;70.40;;;;;;5896612;24;20157;-81
2022/11/09 15:08:39;;;;;;;3.53;2.20;;;19.00;70.90;;;;;;5918623;24;20218;-82
2022/11/09 15:11:05;;;;;;;6.10;2.40;;;19.00;71.00;;;;;;5913693;24;20229;-84
2022/11/09 15:13:36;;;;;;;5.18;2.55;;;19.10;70.00;;;;;;5891391;24;20164;-83
2022/11/09 15:16:06;;;;;;;5.00;2.30;;;19.00;70.90;;;;;;5913000;24;20192;-82
2022/11/09 15:18:34;;;;;;;4.82;2.38;;;19.00;71.20;;;;;;5908546;24;20157;-83
2022/11/09 15:21:19;;;;;;;5.20;2.50;;;19.10;69.50;;;;;;5914727;24;20229;-82
2022/11/09 15:23:46;;;;;;;5.57;2.50;;;19.00;72.00;;;;;;5915956;24;20186;-81
2022/11/09 15:26:33;;;;;;;4.70;2.50;;;19.00;71.40;;;;;;5894612;24;20226;-83
2022/11/09 15:28:59;;;;;;;4.88;2.63;;;19.00;70.50;;;;;;5917644;24;20168;-83
2022/11/09 15:31:31;;;;;;;5.00;2.45;;;19.00;70.70;;;;;;5921431;24;20574;-83
2022/11/09 15:34:14;;;;;;;3.95;2.10;;;19.00;71.00;;;;;;5932682;24;20156;-83
2022/11/09 15:36:39;;;;;;;3.20;2.40;;;19.10;69.40;;;;;;5943648;24;20220;-82
2022/11/09 15:39:26;;;;;;;3.70;2.10;;;19.10;69.50;;;;;;5920154;24;20235;-83
2022/11/09 15:41:52;;;;;;;2.80;2.15;;;19.10;69.00;;;;;;5940578;24;20587;-83
2022/11/09 15:44:36;;;;;;;2.58;2.17;;;19.10;69.60;;;;;;5895302;24;20152;-83
2022/11/09 15:47:30;;;;;;;6.97;2.40;;;19.10;70.40;;;;;;5890091;24;20279;-82
2022/11/09 15:49:58;;;;;;;4.45;2.15;;;19.10;70.30;;;;;;5912065;24;20213;-82
2022/11/09 15:52:24;;;;;;;4.13;2.20;;;19.10;69.30;;;;;;5911676;24;20220;-83
2022/11/09 15:54:50;;;;;;;4.13;2.30;;;19.10;69.60;;;;;;5909282;24;20173;-83
2022/11/09 15:57:22;;;;;;;2.65;2.25;;;19.10;70.20;;;;;;5910162;24;20198;-83
2022/11/09 16:00:01;;;;;;;3.63;2.15;;;19.10;69.80;;;;;;5914812;24;20149;-83
2022/11/09 16:03:21;;;;;;;;;;;;;;;;;;;;;
2022/11/09 16:06:23;;;;;;;4.60;2.40;;;19.10;70.00;;;;;;5801029;24;20203;-84
2022/11/09 16:08:55;;;;;;;6.97;2.58;;;19.10;70.70;;;;;;5802673;24;20265;-84
2022/11/09 16:11:38;;;;;;;5.13;2.60;;;19.00;70.70;;;;;;5806135;24;20167;-84
2022/11/09 16:14:16;;;;;;;3.55;2.45;;;19.10;70.10;;;;;;5785543;24;20156;-83
2022/11/09 16:16:49;;;;;;;3.78;2.40;;;19.10;70.00;;;;;;5805716;24;20159;-84
2022/11/09 16:19:26;;;;;;;4.72;2.20;;;19.10;70.60;;;;;;5827838;24;20176;-83
2022/11/09 16:22:05;;;;;;;3.15;2.28;;;19.10;69.10;;;;;;5835581;24;20167;-84
2022/11/09 16:24:47;;;;;;;5.00;2.40;;;19.10;69.10;;;;;;5814794;24;20188;-83
2022/11/09 16:27:40;;;;;;;3.17;2.47;;;19.10;69.40;;;;;;5837125;24;20245;-82
2022/11/09 16:30:21;;;;;;;4.85;2.58;;;19.10;68.70;;;;;;5860295;24;20159;-84
2022/11/09 16:33:19;;;;;;;3.65;2.70;;;19.10;69.90;;;;;;5866657;24;20154;-83
2022/11/09 16:36:46;;;;;;;4.22;2.60;;;19.10;70.00;;;;;;5894591;24;20173;-84
2022/11/09 16:39:41;;;;;;;2.65;2.17;;;19.10;70.40;;;;;;5903762;24;20156;-85
2022/11/09 16:42:12;;;;;;;5.93;2.80;;;19.10;69.00;;;;;;5897578;24;20160;-85
2022/11/09 16:44:45;;;;;;;3.13;2.50;;;19.10;70.00;;;;;;5912730;24;20239;-84
2022/11/09 16:47:44;;;;;;;4.13;2.35;;;19.10;69.80;;;;;;5896942;24;20192;-86
2022/11/09 16:54:15;;;;;;;4.03;2.53;;;19.10;70.50;;;;;;5804324;24;20241;-83
2022/11/09 16:57:34;;;;;;;7.03;2.28;;;19.10;70.20;;;;;;5791534;24;20215;-83
2022/11/09 17:00:22;;;;;;;5.75;2.33;;;19.10;70.70;;;;;;5736095;25;20221;-85
2022/11/09 17:02:55;;;;;;;5.20;2.40;;;19.10;70.10;;;;;;5725771;25;20192;-83
2022/11/09 17:05:30;;;;;;;3.90;2.30;;;19.20;69.80;;;;;;5723227;25;20447;-85
2022/11/09 17:07:59;;;;;;;2.72;2.20;;;19.10;70.40;;;;;;5702153;25;20275;-84
2022/11/09 17:10:27;;;;;;;3.22;2.10;;;19.20;70.40;;;;;;5725978;25;20166;-85
2022/11/09 17:12:52;;;;;;;4.03;2.40;;;19.20;71.00;;;;;;5716328;25;20199;-84
2022/11/09 17:15:28;;;;;;;3.58;2.05;;;19.20;70.40;;;;;;5707961;25;20166;-85
2022/11/09 17:17:54;;;;;;;8.90;2.60;;;19.20;70.70;;;;;;5669272;25;20170;-84
2022/11/09 17:20:24;;;;;;;4.65;2.45;;;19.20;70.80;;;;;;5688718;25;20276;-84
2022/11/09 17:22:53;;;;;;;3.88;2.70;;;19.20;70.50;;;;;;5708322;25;20163;-84
2022/11/09 17:25:22;;;;;;;4.03;2.50;;;19.20;70.70;;;;;;5673589;25;20250;-85
2022/11/09 17:27:48;;;;;;;5.03;2.50;;;19.20;70.70;;;;;;5763506;24;20255;-84
2022/11/09 17:30:20;;;;;;;4.45;2.58;;;19.20;70.90;;;;;;5804831;24;20155;-83
2022/11/09 17:32:51;;;;;;;3.33;2.30;;;19.20;69.90;;;;;;5877956;24;20164;-85
2022/11/09 17:35:26;;;;;;;3.53;2.30;;;19.20;70.70;;;;;;5881968;24;20287;-84
2022/11/09 17:37:59;;;;;;;3.30;2.30;;;19.20;70.00;;;;;;5929821;24;20167;-85
2022/11/09 17:40:34;;;;;;;3.55;2.30;;;19.20;70.30;;;;;;5860214;24;20172;-85
2022/11/09 17:43:00;;;;;;;5.82;2.53;;;19.20;70.90;;;;;;5919459;24;20193;-85
2022/11/09 17:45:26;;;;;;;4.07;2.40;;;19.20;69.90;;;;;;5967436;24;20199;-84
2022/11/09 17:48:00;;;;;;;5.90;2.38;;;19.10;71.00;;;;;;5921082;24;20191;-83
2022/11/09 17:50:26;;;;;;;4.72;2.40;;;19.20;70.80;;;;;;5920108;23;20293;-84
2022/11/09 17:52:56;;;;;;;4.43;2.45;;;19.10;70.90;;;;;;5942878;24;20140;-84
2022/11/09 17:55:29;;;;;;;4.82;2.25;;;19.20;70.70;;;;;;5944095;24;20284;-83
2022/11/09 17:57:55;;;;;;;3.70;2.20;;;19.20;71.00;;;;;;5922177;24;20173;-85
2022/11/09 18:00:24;;;;;;;6.25;2.40;;;19.20;70.70;;;;;;5969130;24;20230;-83
2022/11/09 18:02:55;;;;;;;8.80;2.67;;;19.20;71.70;;;;;;5966659;24;20160;-85
2022/11/09 18:05:26;;;;;;;4.75;2.60;;;19.20;72.00;;;;;;5990563;24;20215;-83
2022/11/09 18:07:57;;;;;;;5.50;2.67;;;19.20;71.60;;;;;;5898232;24;20231;-84
2022/11/09 18:10:35;;;;;;;10.15;2.83;;;19.20;71.70;;;;;;5942160;24;20244;-83
2022/11/09 18:13:04;;;;;;;3.35;2.65;;;19.20;72.50;;;;;;5967329;24;20241;-84
2022/11/09 18:15:40;;;;;;;5.53;2.53;;;19.20;72.30;;;;;;5993454;24;20187;-84
2022/11/09 18:18:18;;;;;;;3.08;2.42;;;19.30;72.50;;;;;;5970423;24;20206;-85